Time;durP1;ratioP1;P1;durP2;ratioP2;P2;SDS_P1;SDS_P2;PMS_P1;PMS_P2;Temp;Humidity;BMP_temperature;BMP_pressure;BME280_temperature;BME280_humidity;BME280_pressure;Samples;Min_cycle;Max_cycle;Signal;HPM_P1;HPM_P2
2021/03/20 00:01:28;;;;;;;41.73;14.10;;;;;;;0.52;91.74;100719.89;1749525;81;21010;-44
2021/03/20 00:03:56;;;;;;;34.60;13.93;;;;;;;0.49;91.71;100717.23;1749222;82;21049;-46
2021/03/20 00:06:27;;;;;;;58.42;13.80;;;;;;;0.45;91.69;100720.52;1749496;81;21058;-45
2021/03/20 00:08:55;;;;;;;45.60;12.53;;;;;;;0.41;91.66;100719.59;1749516;82;21204;-46
2021/03/20 00:11:23;;;;;;;49.80;11.85;;;;;;;0.37;91.68;100713.94;1749370;81;21049;-42
2021/03/20 00:13:51;;;;;;;46.83;12.30;;;;;;;0.33;91.68;100716.83;1749595;82;21566;-42
2021/03/20 00:16:19;;;;;;;47.55;12.30;;;;;;;0.30;91.68;100717.14;1749498;81;20962;-43
2021/03/20 00:18:48;;;;;;;44.15;12.98;;;;;;;0.24;91.71;100712.34;1749621;82;21073;-43
2021/03/20 00:21:15;;;;;;;50.65;13.72;;;;;;;0.21;91.82;100708.44;1749505;81;21213;-44
2021/03/20 00:23:43;;;;;;;41.90;12.53;;;;;;;0.19;91.86;100711.34;1749404;82;21002;-43
2021/03/20 00:26:11;;;;;;;65.08;14.00;;;;;;;0.16;91.89;100708.72;1749545;81;20970;-44
2021/03/20 00:28:39;;;;;;;43.15;12.55;;;;;;;0.13;91.94;100706.94;1749447;80;20982;-43
2021/03/20 00:31:11;;;;;;;52.53;13.43;;;;;;;0.11;91.97;100708.58;1749544;82;20915;-42
2021/03/20 00:33:41;;;;;;;34.05;13.00;;;;;;;0.08;92.04;100702.13;1749768;82;21346;-44
2021/03/20 00:36:09;;;;;;;39.08;13.05;;;;;;;0.08;92.06;100702.53;1749642;82;21021;-43
2021/03/20 00:38:37;;;;;;;35.95;12.45;;;;;;;0.07;92.11;100695.71;1749676;82;20974;-45
2021/03/20 00:41:04;;;;;;;51.23;13.48;;;;;;;0.05;92.26;100696.08;1749618;82;21005;-45
2021/03/20 00:43:32;;;;;;;41.98;13.40;;;;;;;0.03;92.28;100692.23;1749718;82;20946;-46
2021/03/20 00:46:00;;;;;;;34.95;12.95;;;;;;;0.05;92.35;100690.98;1749704;82;21370;-44
2021/03/20 00:48:31;;;;;;;47.55;13.20;;;;;;;0.06;92.43;100692.32;1749611;82;21006;-44
2021/03/20 00:50:59;;;;;;;40.67;12.50;;;;;;;0.08;92.57;100701.25;1749787;81;21068;-44
2021/03/20 00:53:27;;;;;;;42.70;13.28;;;;;;;0.10;92.51;100693.25;1749741;82;21547;-43
2021/03/20 00:55:56;;;;;;;44.83;12.95;;;;;;;0.08;92.49;100696.16;1749702;81;20939;-44
2021/03/20 00:59:39;;;;;;;39.83;12.80;;;;;;;0.11;92.53;100692.03;1776951;79;22667;-45
2021/03/20 01:02:06;;;;;;;36.80;11.68;;;;;;;0.08;92.56;100705.07;1749485;82;21003;-44
2021/03/20 01:04:34;;;;;;;44.25;11.97;;;;;;;0.08;92.59;100697.44;1749479;82;21370;-42
2021/03/20 01:07:02;;;;;;;56.02;12.70;;;;;;;0.10;92.61;100694.52;1749402;82;21018;-43
2021/03/20 01:09:32;;;;;;;49.63;13.28;;;;;;;0.11;92.58;100701.34;1749594;82;20979;-44
2021/03/20 01:12:00;;;;;;;46.53;12.05;;;;;;;0.11;92.59;100698.79;1749422;82;21548;-42
2021/03/20 01:14:28;;;;;;;48.85;13.68;;;;;;;0.10;92.63;100696.67;1749473;82;21003;-44
2021/03/20 01:16:55;;;;;;;40.73;11.75;;;;;;;0.10;92.62;100697.95;1749468;82;21203;-44
2021/03/20 01:19:23;;;;;;;44.25;12.20;;;;;;;0.11;92.66;100695.85;1749331;82;20971;-44
2021/03/20 01:21:51;;;;;;;33.30;11.68;;;;;;;0.11;92.67;100693.70;1749466;80;21054;-42
2021/03/20 01:24:19;;;;;;;42.50;12.50;;;;;;;0.11;92.65;100694.97;1749486;82;21544;-45
2021/03/20 01:26:46;;;;;;;39.20;11.43;;;;;;;0.09;92.63;100697.89;1744472;82;21105;-43
2021/03/20 01:29:14;;;;;;;33.33;10.03;;;;;;;0.06;92.61;100693.98;1719614;83;21474;-43
2021/03/20 01:31:41;;;;;;;40.85;11.15;;;;;;;0.07;92.65;100696.98;1719511;83;20935;-43
2021/03/20 01:34:09;;;;;;;34.43;11.55;;;;;;;0.06;92.68;100696.53;1719649;83;20955;-43
2021/03/20 01:36:37;;;;;;;38.50;10.80;;;;;;;0.06;92.76;100694.86;1719651;83;21010;-44
2021/03/20 01:39:05;;;;;;;42.08;11.93;;;;;;;0.07;92.77;100694.44;1719500;83;21005;-43
2021/03/20 01:41:33;;;;;;;46.42;11.25;;;;;;;0.07;92.77;100695.31;1719592;83;21348;-45
2021/03/20 01:44:00;;;;;;;37.05;11.18;;;;;;;0.09;92.79;100695.34;1719615;83;21014;-45
2021/03/20 01:46:47;;;;;;;37.80;10.68;;;;;;;0.09;92.80;100691.52;1719565;83;20951;-45
2021/03/20 01:49:40;;;;;;;38.20;11.25;;;;;;;0.10;92.78;100690.70;1719648;83;20919;-44
2021/03/20 01:52:16;;;;;;;35.83;10.60;;;;;;;0.11;92.80;100691.16;1719630;83;21002;-43
2021/03/20 01:55:12;;;;;;;34.18;10.88;;;;;;;0.12;92.79;100692.88;1719608;82;20959;-44
2021/03/20 01:57:42;;;;;;;41.33;11.57;;;;;;;0.13;92.83;100690.81;1719456;82;21110;-43
2021/03/20 02:00:15;;;;;;;31.93;10.53;;;;;;;0.16;92.87;100691.30;1720301;82;21026;-45
2021/03/20 02:02:43;;;;;;;50.63;11.97;;;;;;;0.17;92.83;100693.02;1720335;83;21005;-43
2021/03/20 02:05:14;;;;;;;42.75;11.43;;;;;;;0.17;92.79;100695.56;1720424;83;21007;-43
2021/03/20 02:07:42;;;;;;;34.78;10.78;;;;;;;0.16;92.80;100689.62;1720291;83;21209;-43
2021/03/20 02:10:13;;;;;;;36.90;11.73;;;;;;;0.17;92.77;100690.08;1719915;83;21034;-42
2021/03/20 02:12:40;;;;;;;40.48;11.93;;;;;;;0.18;92.70;100692.20;1719869;83;21642;-43
2021/03/20 02:15:21;;;;;;;40.92;10.58;;;;;;;0.18;92.76;100696.89;1719764;83;20947;-42
2021/03/20 02:18:22;;;;;;;37.08;11.20;;;;;;;0.17;92.76;100697.72;1719896;83;21014;-45
2021/03/20 02:21:19;;;;;;;37.60;11.22;;;;;;;0.16;92.78;100698.53;1719788;82;21210;-42
2021/03/20 02:24:27;;;;;;;42.70;11.30;;;;;;;0.15;92.76;100695.54;1719754;83;21050;-42
2021/03/20 02:27:31;;;;;;;40.48;12.85;;;;;;;0.14;92.77;100695.94;1719778;82;20994;-44
2021/03/20 02:30:30;;;;;;;33.73;11.80;;;;;;;0.11;92.76;100694.97;1719870;83;20967;-42
2021/03/20 02:33:27;;;;;;;40.70;11.68;;;;;;;0.09;92.75;100699.16;1719842;83;21085;-43
2021/03/20 02:36:17;;;;;;;31.97;12.23;;;;;;;0.08;92.74;100701.25;1719754;83;21307;-43
2021/03/20 02:38:59;;;;;;;32.73;12.63;;;;;;;0.06;92.78;100699.08;1713689;83;21058;-45
2021/03/20 02:41:34;;;;;;;29.35;14.60;;;;;;;0.03;92.84;100698.59;1719776;82;20990;-44
2021/03/20 02:44:24;;;;;;;38.67;13.00;;;;;;;0.04;92.83;100699.45;1719963;83;26513;-43
2021/03/20 02:47:00;;;;;;;33.60;12.73;;;;;;;0.04;92.81;100704.53;1719801;83;21058;-44
2021/03/20 02:49:49;;;;;;;39.95;13.35;;;;;;;0.04;92.81;100700.72;1719845;83;21368;-43
2021/03/20 02:52:26;;;;;;;45.92;14.10;;;;;;;0.05;92.84;100702.44;1693190;83;20907;-43
2021/03/20 02:55:11;;;;;;;36.28;13.45;;;;;;;0.05;92.87;100700.78;1719784;83;20947;-43
2021/03/20 02:58:07;;;;;;;36.70;12.28;;;;;;;0.07;92.83;100704.23;1719000;83;21285;-45
2021/03/20 03:00:54;;;;;;;37.98;13.72;;;;;;;0.08;92.85;100700.86;1719841;83;21094;-44
2021/03/20 03:03:24;;;;;;;46.15;16.45;;;;;;;0.06;92.84;100705.05;1692168;83;21448;-45
2021/03/20 03:06:02;;;;;;;42.93;14.65;;;;;;;0.06;92.80;100709.27;1719719;83;21022;-43
2021/03/20 03:08:44;;;;;;;38.60;14.50;;;;;;;0.06;92.80;100707.98;1719802;83;21531;-45
2021/03/20 03:11:19;;;;;;;39.13;14.78;;;;;;;0.05;92.80;100712.63;1719832;83;21579;-44
2021/03/20 03:13:54;;;;;;;45.92;17.37;;;;;;;0.02;92.80;100716.36;1719747;83;20935;-44
2021/03/20 03:16:27;;;;;;;42.33;17.87;;;;;;;0.03;92.78;100714.27;1693403;83;21284;-44
2021/03/20 03:18:58;;;;;;;76.67;17.55;;;;;;;0.02;92.70;100713.81;1719120;83;21062;-44
2021/03/20 03:21:27;;;;;;;52.98;17.32;;;;;;;0.01;92.75;100717.18;1719775;83;20974;-45
2021/03/20 03:23:55;;;;;;;64.53;18.95;;;;;;;-0.02;92.75;100712.45;1719720;83;21654;-43
2021/03/20 03:26:30;;;;;;;62.40;17.45;;;;;;;-0.04;92.74;100709.01;1719754;83;21022;-44
2021/03/20 03:29:02;;;;;;;48.38;17.35;;;;;;;-0.04;92.75;100711.95;1719859;82;21385;-44
2021/03/20 03:31:34;;;;;;;52.27;18.32;;;;;;;-0.03;92.73;100709.85;1719827;82;21579;-44
2021/03/20 03:34:08;;;;;;;43.73;17.62;;;;;;;-0.03;92.78;100715.83;1719747;82;21006;-44
2021/03/20 03:36:41;;;;;;;47.75;17.15;;;;;;;-0.04;92.82;100711.55;1719697;83;21022;-45
2021/03/20 03:39:36;;;;;;;44.42;17.25;;;;;;;-0.03;92.78;100714.55;1717980;83;20928;-45
2021/03/20 03:42:04;;;;;;;56.02;17.62;;;;;;;-0.04;92.72;100716.64;1719717;83;21388;-45
2021/03/20 03:44:31;;;;;;;36.98;16.97;;;;;;;-0.05;92.72;100710.22;1719670;83;21081;-44
2021/03/20 03:46:59;;;;;;;44.00;19.32;;;;;;;-0.09;92.72;100710.56;1719770;83;21104;-43
2021/03/20 03:49:26;;;;;;;34.38;17.25;;;;;;;-0.10;92.74;100712.66;1670353;83;21018;-46
2021/03/20 03:51:54;;;;;;;46.80;17.02;;;;;;;-0.09;92.74;100719.86;1719797;82;21074;-43
2021/03/20 03:54:23;;;;;;;42.08;17.42;;;;;;;-0.08;92.73;100716.50;1719429;83;21382;-44
2021/03/20 03:57:22;;;;;;;47.60;16.32;;;;;;;-0.10;92.73;100716.47;1719647;83;21035;-45
2021/03/20 04:00:10;;;;;;;39.30;16.30;;;;;;;-0.09;92.75;100709.29;1719633;83;21377;-45
2021/03/20 04:03:20;;;;;;;40.78;16.93;;;;;;;-0.05;92.75;100713.64;1847660;76;22771;-43
2021/03/20 04:06:37;;;;;;;41.35;16.70;;;;;;;-0.08;92.79;100726.68;1817850;77;21065;-44
2021/03/20 04:09:21;;;;;;;44.93;17.95;;;;;;;-0.08;92.85;100721.20;1817837;79;21314;-47
2021/03/20 04:12:24;;;;;;;39.38;15.88;;;;;;;-0.08;92.83;100721.20;1817803;79;21634;-44
2021/03/20 04:15:08;;;;;;;36.73;14.58;;;;;;;-0.05;92.85;100724.22;1796055;79;20990;-43
2021/03/20 04:17:54;;;;;;;36.98;16.17;;;;;;;-0.03;92.93;100731.09;1817743;79;20998;-45
2021/03/20 04:20:33;;;;;;;30.17;15.78;;;;;;;-0.01;92.98;100726.91;1817898;79;20979;-42
2021/03/20 04:23:17;;;;;;;29.92;14.53;;;;;;;0.04;93.01;100721.09;1817882;79;21434;-44
2021/03/20 04:25:59;;;;;;;30.95;12.90;;;;;;;0.08;93.02;100724.17;1817788;79;20934;-44
2021/03/20 04:28:50;;;;;;;32.60;13.78;;;;;;;0.12;92.98;100727.25;1751784;80;21073;-44
2021/03/20 04:31:28;;;;;;;29.27;11.78;;;;;;;0.13;92.96;100727.73;1785623;79;21487;-45
2021/03/20 04:34:38;;;;;;;29.65;11.40;;;;;;;0.16;92.97;100720.18;1783979;80;21006;-42
2021/03/20 04:37:13;;;;;;;23.50;11.28;;;;;;;0.22;93.01;100725.83;1785628;80;21417;-43
2021/03/20 04:39:47;;;;;;;25.33;12.07;;;;;;;0.32;93.32;100734.59;1755577;80;20970;-45
2021/03/20 04:42:19;;;;;;;21.02;11.75;;;;;;;0.32;93.32;100734.59;1785503;80;21907;-44
2021/03/20 04:44:46;;;;;;;26.02;12.55;;;;;;;0.38;93.10;100738.58;1785590;80;20958;-44
2021/03/20 04:47:22;;;;;;;32.35;12.15;;;;;;;0.42;92.95;100741.27;1785709;80;20950;-44
2021/03/20 04:50:10;;;;;;;29.92;13.22;;;;;;;0.47;92.98;100746.50;1785579;80;21344;-45
2021/03/20 04:52:40;;;;;;;43.95;14.70;;;;;;;0.52;92.97;100747.48;1784885;80;21038;-42
2021/03/20 04:55:09;;;;;;;31.75;13.48;;;;;;;0.59;92.98;100751.47;1785577;80;21523;-43
2021/03/20 04:57:53;;;;;;;46.28;12.55;;;;;;;0.65;92.97;100749.11;1785525;80;20959;-44
2021/03/20 05:00:52;;;;;;;33.70;12.98;;;;;;;0.72;92.84;100753.54;1785580;80;20982;-42
2021/03/20 05:03:31;;;;;;;23.73;12.20;;;;;;;0.70;92.64;100751.36;1785543;80;21439;-44
2021/03/20 05:06:02;;;;;;;32.05;12.15;;;;;;;0.75;92.70;100755.28;1785473;80;21013;-43
2021/03/20 05:08:46;;;;;;;29.98;11.78;;;;;;;0.79;92.71;100757.97;1785576;80;21009;-42
2021/03/20 05:11:22;;;;;;;21.85;11.30;;;;;;;0.89;92.69;100762.05;1785525;80;20934;-43
2021/03/20 05:14:17;;;;;;;26.33;10.60;;;;;;;0.97;92.69;100760.56;1785060;80;20958;-42
2021/03/20 05:16:56;;;;;;;23.77;11.65;;;;;;;1.05;92.60;100758.21;1784982;79;21267;-42
2021/03/20 05:19:25;;;;;;;30.85;12.28;;;;;;;1.11;92.43;100761.75;1785009;80;20931;-44
2021/03/20 05:21:54;;;;;;;27.93;11.30;;;;;;;1.19;92.30;100765.78;1785100;80;20994;-43
2021/03/20 05:24:27;;;;;;;27.05;12.15;;;;;;;1.25;92.13;100765.08;1785037;79;21530;-43
2021/03/20 05:26:55;;;;;;;29.48;13.10;;;;;;;1.28;91.96;100765.15;1784551;80;21041;-43
2021/03/20 05:29:24;;;;;;;31.82;12.82;;;;;;;1.28;91.82;100767.30;1784980;80;21206;-44
2021/03/20 05:31:52;;;;;;;36.28;12.70;;;;;;;1.31;91.76;100771.59;1784945;80;20978;-45
2021/03/20 05:34:25;;;;;;;20.57;11.48;;;;;;;1.34;91.68;100771.67;1784954;80;20899;-45
2021/03/20 05:36:53;;;;;;;28.70;11.53;;;;;;;1.41;91.76;100768.86;1784927;80;21614;-43
2021/03/20 05:39:21;;;;;;;32.67;11.03;;;;;;;1.51;91.81;100773.78;1784993;79;21000;-44
2021/03/20 05:42:39;;;;;;;32.55;10.78;;;;;;;1.60;91.65;100777.81;1784998;80;21373;-43
2021/03/20 05:45:22;;;;;;;29.40;11.60;;;;;;;1.66;91.52;100772.87;1784949;80;20947;-42
2021/03/20 05:48:04;;;;;;;31.70;11.57;;;;;;;1.74;91.23;100774.73;1784972;80;21061;-45
2021/03/20 05:51:25;;;;;;;34.27;12.07;;;;;;;1.80;90.90;100769.76;1784905;79;21022;-45
2021/03/20 05:54:05;;;;;;;43.80;12.03;;;;;;;1.86;90.77;100774.59;1785069;80;20947;-42
2021/03/20 05:57:00;;;;;;;36.55;11.60;;;;;;;1.95;90.55;100776.50;1784557;79;21266;-43
2021/03/20 05:59:33;;;;;;;56.95;12.98;;;;;;;2.01;90.20;100777.91;1784969;80;21010;-43
2021/03/20 06:02:33;;;;;;;28.67;12.18;;;;;;;1.93;89.53;100781.98;1790868;79;21029;-45
2021/03/20 06:05:39;;;;;;;35.68;11.38;;;;;;;1.84;89.44;100790.70;1799062;79;21085;-42
2021/03/20 06:08:36;;;;;;;39.65;13.58;;;;;;;1.85;89.46;100786.03;1799485;79;21053;-45
2021/03/20 06:11:35;;;;;;;33.13;12.33;;;;;;;1.93;89.34;100787.49;1799560;79;21375;-43
2021/03/20 06:14:24;;;;;;;39.63;12.80;;;;;;;2.03;88.74;100784.34;1799466;79;21471;-43
2021/03/20 06:17:13;;;;;;;45.45;12.58;;;;;;;2.03;88.41;100782.18;1799434;79;20986;-46
2021/03/20 06:20:05;;;;;;;47.13;14.75;;;;;;;1.98;88.20;100779.52;1799441;79;20945;-43
2021/03/20 06:23:04;;;;;;;58.13;19.15;;;;;;;1.99;88.41;100779.96;1799106;79;21048;-43
2021/03/20 06:25:49;;;;;;;37.25;15.18;;;;;;;2.01;87.71;100784.28;1799402;79;22173;-44
2021/03/20 06:28:22;;;;;;;31.97;13.55;;;;;;;2.13;87.64;100780.26;1799384;79;21115;-43
2021/03/20 06:30:52;;;;;;;40.48;14.68;;;;;;;2.11;87.41;100785.75;1799223;79;21625;-45
2021/03/20 06:33:40;;;;;;;52.55;16.80;;;;;;;2.04;87.01;100780.07;1799432;79;20990;-44
2021/03/20 06:36:19;;;;;;;49.30;16.35;;;;;;;2.07;87.16;100786.13;1780948;79;21057;-45
2021/03/20 06:38:57;;;;;;;41.58;14.05;;;;;;;2.26;87.32;100786.49;1799515;79;21422;-44
2021/03/20 06:41:42;;;;;;;44.88;14.73;;;;;;;2.44;87.06;100791.99;1799397;79;20931;-45
2021/03/20 06:44:37;;;;;;;47.65;16.12;;;;;;;2.50;86.46;100791.27;1799427;79;21069;-44
2021/03/20 06:47:19;;;;;;;30.48;16.30;;;;;;;2.54;85.97;100794.32;1799474;79;21036;-44
2021/03/20 06:50:10;;;;;;;58.33;20.85;;;;;;;2.75;85.79;100797.26;1799488;78;20926;-44
2021/03/20 06:52:37;;;;;;;57.58;18.55;;;;;;;2.94;85.63;100795.50;1799399;79;21336;-42
2021/03/20 06:55:11;;;;;;;62.03;19.40;;;;;;;2.97;83.91;100792.15;1799378;79;21097;-45
2021/03/20 06:57:38;;;;;;;58.87;19.87;;;;;;;3.05;83.99;100797.41;1797146;79;20973;-43
2021/03/20 07:00:26;;;;;;;52.00;19.82;;;;;;;3.20;83.73;100789.98;1799351;79;20883;-45
2021/03/20 07:03:14;;;;;;;57.43;21.65;;;;;;;3.35;83.38;100791.94;1799388;78;21045;-42
2021/03/20 07:06:22;;;;;;;57.48;21.60;;;;;;;3.48;82.51;100793.44;1780520;80;22226;-43
2021/03/20 07:08:59;;;;;;;62.78;21.20;;;;;;;3.56;81.43;100796.97;1780392;80;20918;-43
2021/03/20 07:11:39;;;;;;;56.40;22.00;;;;;;;3.61;80.22;100797.91;1780495;80;20939;-44
2021/03/20 07:14:13;;;;;;;66.80;22.58;;;;;;;3.62;79.25;100803.47;1755787;80;21053;-43
2021/03/20 07:16:54;;;;;;;59.45;22.15;;;;;;;3.60;79.09;100797.45;1753646;80;21070;-44
2021/03/20 07:19:23;;;;;;;61.85;23.35;;;;;;;3.66;79.16;100800.55;1761965;81;22373;-42
2021/03/20 07:22:02;;;;;;;59.77;25.43;;;;;;;3.68;78.36;100801.02;1780353;80;21370;-43
2021/03/20 07:24:38;;;;;;;60.15;25.60;;;;;;;3.71;78.55;100800.19;1731667;82;21048;-44
2021/03/20 07:27:16;;;;;;;60.60;23.80;;;;;;;3.76;78.05;100807.52;1780401;80;21041;-42
2021/03/20 07:29:56;;;;;;;64.05;23.55;;;;;;;3.76;76.40;100804.95;1761976;81;20957;-43
2021/03/20 07:32:32;;;;;;;57.62;22.20;;;;;;;3.72;76.95;100809.19;1780360;80;21383;-44
2021/03/20 07:35:17;;;;;;;60.12;23.45;;;;;;;3.86;77.40;100812.36;1761855;81;21094;-43
2021/03/20 07:37:45;;;;;;;66.63;23.93;;;;;;;4.07;77.26;100810.55;1779971;80;20991;-45
2021/03/20 07:40:21;;;;;;;61.33;22.75;;;;;;;4.33;76.06;100811.73;1761899;81;21100;-43
2021/03/20 07:42:49;;;;;;;;;;;;;;;4.48;75.47;100811.94;1783076;80;20942;-44
2021/03/20 07:45:25;;;;;;;61.95;20.92;;;;;;;4.61;73.75;100810.38;1780448;80;21112;-43
2021/03/20 07:48:01;;;;;;;69.17;23.70;;;;;;;4.71;73.04;100805.78;1761866;81;21080;-43
2021/03/20 07:50:32;;;;;;;59.90;20.80;;;;;;;4.78;72.23;100806.72;1780425;80;21002;-43
2021/03/20 07:53:13;;;;;;;61.05;21.60;;;;;;;4.82;72.25;100807.63;1761970;81;21684;-44
2021/03/20 07:56:06;;;;;;;59.15;21.82;;;;;;;4.91;71.70;100813.25;1780392;80;21554;-43
2021/03/20 07:58:46;;;;;;;56.30;20.40;;;;;;;4.98;70.92;100811.22;1746810;80;21219;-44
2021/03/20 08:01:25;;;;;;;60.75;20.52;;;;;;;4.96;70.46;100811.62;1780369;80;20939;-43
2021/03/20 08:03:57;;;;;;;60.28;20.43;;;;;;;5.01;68.67;100807.39;1759753;80;21149;-43
2021/03/20 08:06:36;;;;;;;51.53;20.30;;;;;;;4.81;69.20;100809.32;1729244;81;20954;-44
2021/03/20 08:09:24;;;;;;;49.63;20.92;;;;;;;4.83;69.64;100814.05;1759472;80;21550;-43
2021/03/20 08:12:03;;;;;;;59.53;19.02;;;;;;;4.88;69.92;100812.81;1727731;83;21370;-44
2021/03/20 08:14:42;;;;;;;44.83;18.62;;;;;;;4.91;68.69;100816.70;1759347;81;21682;-43
2021/03/20 08:17:16;;;;;;;53.25;17.48;;;;;;;4.76;68.38;100810.98;1729268;83;21032;-45
2021/03/20 08:19:44;;;;;;;58.90;19.60;;;;;;;4.77;69.77;100810.54;1759380;80;21045;-43
2021/03/20 08:22:36;;;;;;;55.08;19.95;;;;;;;4.77;69.77;100810.54;1729197;81;20997;-41
2021/03/20 08:25:39;;;;;;;49.55;20.27;;;;;;;5.06;69.68;100812.14;1759394;81;21395;-44
2021/03/20 08:28:27;;;;;;;52.98;20.70;;;;;;;5.06;69.68;100812.14;1727529;81;20997;-44
2021/03/20 08:31:41;;;;;;;49.48;19.80;;;;;;;5.39;69.75;100815.86;1727358;83;20977;-45
2021/03/20 08:34:54;;;;;;;51.35;18.80;;;;;;;5.39;69.75;100815.86;1727650;82;20969;-43
2021/03/20 08:37:51;;;;;;;54.85;19.05;;;;;;;5.56;68.65;100820.30;1727714;81;21057;-43
2021/03/20 08:40:57;;;;;;;58.33;18.73;;;;;;;5.42;66.54;100820.18;1682411;81;21455;-43
2021/03/20 08:43:45;;;;;;;;;;;;;;;5.29;67.55;100813.63;1731760;82;21569;-43
2021/03/20 08:46:35;;;;;;;54.55;18.80;;;;;;;4.77;68.28;100816.55;1723840;82;20151;-43
2021/03/20 08:49:17;;;;;;;49.30;17.73;;;;;;;4.77;68.28;100816.55;1706837;82;20971;-43
2021/03/20 08:52:17;;;;;;;52.13;17.52;;;;;;;4.75;68.38;100819.08;1703978;83;21073;-43
2021/03/20 08:55:10;;;;;;;37.42;14.35;;;;;;;4.72;68.10;100819.05;1735361;81;21376;-43
2021/03/20 08:58:01;;;;;;;42.93;13.30;;;;;;;4.71;66.61;100823.73;1735266;81;21025;-43
2021/03/20 09:00:40;;;;;;;39.98;14.55;;;;;;;4.65;66.49;100826.64;1735406;82;21048;-43
2021/03/20 09:03:12;;;;;;;31.40;11.20;;;;;;;4.67;66.71;100830.97;1740169;82;21006;-44
2021/03/20 09:05:57;;;;;;;28.85;9.45;;;;;;;4.73;66.77;100823.77;1746487;82;21097;-44
2021/03/20 09:08:35;;;;;;;24.37;10.13;;;;;;;4.78;65.67;100830.22;1746468;82;21355;-43
2021/03/20 09:11:22;;;;;;;22.82;8.30;;;;;;;4.85;64.84;100818.77;1746511;82;21567;-45
2021/03/20 09:13:58;;;;;;;28.30;9.08;;;;;;;4.85;64.84;100818.77;1746555;82;20954;-44
2021/03/20 09:16:47;;;;;;;31.42;10.90;;;;;;;4.91;64.41;100820.95;1723294;82;20911;-43
2021/03/20 09:19:26;;;;;;;33.95;11.73;;;;;;;4.96;64.06;100830.87;1746499;82;21061;-43
2021/03/20 09:21:57;;;;;;;29.60;12.00;;;;;;;4.95;64.29;100826.14;1746508;82;21534;-44
2021/03/20 09:24:27;;;;;;;33.40;12.18;;;;;;;4.94;64.90;100821.86;1746356;82;21183;-43
2021/03/20 09:26:58;;;;;;;42.85;13.62;;;;;;;4.99;64.87;100821.92;1746449;82;20958;-43
2021/03/20 09:29:32;;;;;;;33.33;13.13;;;;;;;5.06;65.42;100819.84;1746351;82;20986;-44
2021/03/20 09:32:11;;;;;;;33.48;14.10;;;;;;;5.42;64.62;100814.60;1746458;82;21562;-42
2021/03/20 09:34:43;;;;;;;46.25;13.13;;;;;;;5.42;64.62;100814.60;1746385;82;21217;-43
2021/03/20 09:37:22;;;;;;;32.23;13.30;;;;;;;5.53;64.93;100817.27;1746405;82;20994;-44
2021/03/20 09:39:55;;;;;;;38.23;13.70;;;;;;;5.60;64.08;100816.89;1746472;82;20954;-44
2021/03/20 09:42:28;;;;;;;34.13;12.68;;;;;;;5.71;62.95;100823.41;1746405;82;21033;-44
2021/03/20 09:45:15;;;;;;;38.53;13.70;;;;;;;5.77;62.96;100820.03;1746221;82;20994;-44
2021/03/20 09:47:53;;;;;;;36.93;13.48;;;;;;;5.92;62.80;100819.27;1709407;82;21391;-43
2021/03/20 09:50:27;;;;;;;30.55;12.35;;;;;;;6.04;61.70;100823.22;1746472;82;21582;-43
2021/03/20 09:53:14;;;;;;;30.12;11.33;;;;;;;6.10;62.87;100824.98;1746777;82;21010;-43
2021/03/20 09:55:46;;;;;;;33.58;12.13;;;;;;;6.18;62.12;100816.87;1746424;82;20943;-43
2021/03/20 09:58:25;;;;;;;26.93;10.32;;;;;;;6.31;61.02;100822.53;1746459;82;20910;-45
2021/03/20 10:00:59;;;;;;;35.65;13.10;;;;;;;6.31;60.72;100823.81;1746426;82;21372;-43
2021/03/20 10:03:48;;;;;;;24.20;10.35;;;;;;;6.26;62.40;100826.80;1738650;82;20964;-42
2021/03/20 10:06:33;;;;;;;31.05;11.43;;;;;;;6.19;60.96;100822.48;1729799;81;20951;-44
2021/03/20 10:09:05;;;;;;;27.87;11.63;;;;;;;6.14;60.53;100826.71;1701060;83;20914;-44
2021/03/20 10:11:59;;;;;;;28.42;10.90;;;;;;;5.95;59.96;100828.28;1847177;76;23867;-44
2021/03/20 10:14:35;;;;;;;35.03;11.70;;;;;;;5.77;59.75;100828.58;1817829;79;20928;-43
2021/03/20 10:17:17;;;;;;;22.13;9.88;;;;;;;5.64;60.39;100832.77;1817727;79;21353;-43
2021/03/20 10:19:52;;;;;;;22.62;9.68;;;;;;;5.58;61.07;100830.15;1817788;79;21002;-44
2021/03/20 10:22:29;;;;;;;30.25;11.70;;;;;;;5.58;61.07;100830.15;1796662;79;20943;-43
2021/03/20 10:24:56;;;;;;;28.00;10.08;;;;;;;5.56;60.63;100831.85;1817859;78;21535;-43
2021/03/20 10:27:30;;;;;;;25.77;10.48;;;;;;;5.44;61.33;100829.63;1805992;79;21030;-44
2021/03/20 10:30:20;;;;;;;21.55;9.63;;;;;;;5.45;60.98;100833.04;1785639;80;22099;-42
2021/03/20 10:33:17;;;;;;;32.40;10.15;;;;;;;5.54;61.72;100833.55;1785586;79;21571;-44
2021/03/20 10:35:44;;;;;;;21.73;9.53;;;;;;;5.77;62.71;100830.30;1785614;79;20991;-45
2021/03/20 10:38:21;;;;;;;32.53;11.05;;;;;;;5.77;62.71;100830.30;1785556;80;21021;-43
2021/03/20 10:41:06;;;;;;;33.25;10.43;;;;;;;5.81;62.05;100828.19;1785335;80;21046;-42
2021/03/20 10:43:47;;;;;;;17.80;9.43;;;;;;;5.92;61.39;100829.55;1785721;80;21190;-44
2021/03/20 10:46:28;;;;;;;24.43;9.80;;;;;;;6.04;61.04;100825.80;1785600;80;20963;-45
2021/03/20 10:48:58;;;;;;;30.75;9.53;;;;;;;6.02;60.24;100824.52;1785425;80;21045;-44
2021/03/20 10:51:29;;;;;;;20.50;8.55;;;;;;;6.02;59.88;100829.66;1785549;79;22185;-43
2021/03/20 10:54:02;;;;;;;17.40;9.30;;;;;;;6.07;59.49;100824.97;1785612;80;21045;-43
2021/03/20 10:56:34;;;;;;;31.65;9.90;;;;;;;6.09;59.40;100825.42;1784565;80;21215;-44
2021/03/20 10:59:25;;;;;;;16.30;8.13;;;;;;;6.14;59.13;100822.86;1785579;80;21646;-42
2021/03/20 11:01:53;;;;;;;19.77;8.65;;;;;;;6.20;58.19;100821.62;1784861;80;22141;-44
2021/03/20 11:04:33;;;;;;;25.82;8.80;;;;;;;6.17;58.28;100816.44;1785546;80;21026;-46
2021/03/20 11:07:02;;;;;;;26.65;8.98;;;;;;;6.05;58.09;100822.37;1785624;80;20927;-44
2021/03/20 11:09:31;;;;;;;26.60;9.40;;;;;;;6.02;59.12;100823.23;1785607;80;21009;-44
2021/03/20 11:12:05;;;;;;;19.87;9.23;;;;;;;6.03;59.18;100824.08;1785449;80;20958;-44
2021/03/20 11:14:46;;;;;;;29.15;9.60;;;;;;;6.13;58.92;100823.70;1785653;80;20939;-43
2021/03/20 11:17:24;;;;;;;28.40;9.60;;;;;;;6.26;59.04;100811.38;1847593;76;22695;-42
2021/03/20 11:20:22;;;;;;;19.42;6.97;;;;;;;6.31;58.33;100819.08;1817855;78;21077;-43
2021/03/20 11:22:50;;;;;;;19.60;6.65;;;;;;;6.54;57.22;100813.19;1817785;79;21191;-44
2021/03/20 11:25:35;;;;;;;24.18;7.17;;;;;;;6.54;57.22;100813.19;1817732;77;20954;-44
2021/03/20 11:28:17;;;;;;;12.78;5.92;;;;;;;6.69;56.83;100813.67;1797485;79;21018;-44
2021/03/20 11:30:49;;;;;;;20.40;6.60;;;;;;;6.74;55.39;100809.42;1754747;80;21041;-48
2021/03/20 11:33:24;;;;;;;14.83;7.03;;;;;;;6.79;55.79;100810.70;1785663;80;20947;-44
2021/03/20 11:35:56;;;;;;;14.83;6.17;;;;;;;6.95;55.92;100820.64;1785798;80;21161;-44
2021/03/20 11:38:24;;;;;;;18.02;6.92;;;;;;;7.15;55.46;100814.23;1785586;80;21046;-44
2021/03/20 11:41:06;;;;;;;11.97;6.60;;;;;;;7.25;55.54;100813.81;1785584;80;21010;-42
2021/03/20 11:44:02;;;;;;;15.43;6.67;;;;;;;7.30;55.21;100815.96;1785639;80;21034;-42
2021/03/20 11:46:36;;;;;;;21.42;6.85;;;;;;;7.21;54.26;100816.80;1785784;80;21452;-44
2021/03/20 11:49:23;;;;;;;22.10;6.62;;;;;;;6.99;54.89;100821.91;1785609;80;21110;-43
2021/03/20 11:51:50;;;;;;;13.18;5.90;;;;;;;6.81;55.38;100813.73;1785520;80;21042;-45
2021/03/20 11:54:34;;;;;;;21.62;7.30;;;;;;;6.83;54.93;100812.45;1785517;80;20927;-42
2021/03/20 11:57:13;;;;;;;20.70;7.17;;;;;;;6.80;55.08;100809.84;1785605;80;21527;-43
2021/03/20 11:59:44;;;;;;;14.75;5.58;;;;;;;6.61;54.45;100808.08;1719181;82;21030;-43
2021/03/20 12:02:26;;;;;;;14.78;5.83;;;;;;;6.23;55.70;100810.08;1785186;80;21206;-49
2021/03/20 12:05:16;;;;;;;15.05;6.20;;;;;;;6.10;56.19;100815.98;1759083;80;21026;-44
2021/03/20 12:07:45;;;;;;;21.52;6.00;;;;;;;5.96;56.16;100818.03;1785625;80;21554;-48
2021/03/20 12:10:23;;;;;;;21.55;7.03;;;;;;;5.89;56.58;100825.23;1785599;80;21030;-44
2021/03/20 12:12:54;;;;;;;9.50;6.22;;;;;;;5.86;56.66;100823.53;1785572;80;20997;-43
2021/03/20 12:15:34;;;;;;;16.10;6.03;;;;;;;5.73;57.46;100816.16;1785107;80;21195;-44